Aérodrome :
LOGIN :

S'inscrire | Disclaimer

   EN    FR    IT 

 










Légende :    VFR   VFR Marginal   IFR   IFR Intensif   IFR Très Intensif
Visi : 
Plafond : 
>= 8 km
>= 3000ft
5 à 8 km
1000 à 3000 ft
1500m à 5 km
500 à 1000 ft
800 à 1500m
200 à 500 ft
< 800m
< 200 ft
Symboles :   Orages  Brouillard  Fortes neiges  Fortes précipitations  Vent > 20 kt
SIGMETs :   Divers  Orages  Givrage  Turbulence  Onde Orograph.  Cendres Volcan.






- Altitude de l'aérodrome : 436 ft
- Code IATA : BTS


LZIB - Bratislava

DERNIER METAR :
  • 142130Z 01004KT 9999 MIFG FEW010 SCT041 03/02 Q1012

METARs EXPIRÉS :
  • 142100Z 04005KT 9999 FEW010 SCT045 03/02 Q1012
  • 142030Z 04005KT 9999 FEW046 03/03 Q1011
  • 142000Z 01006KT CAVOK 03/03 Q1011
  • 141930Z 01005KT 8000 FEW003 SCT060 04/03 Q1011
  • 141900Z 05006KT 8000 FEW010 03/02 Q1011 BECMG BKN010

TAF TAF LZIB
Valide du 14 à 18h jusqu'au 15 à 18h UTC


141700Z 1418/1518 09005KT 9999 FEW015
BECMG 1418/1420 BKN013
TEMPO 1423/1509 VRB02KT 2500 BR BKN006
PROB40
TEMPO 1503/1508 0500 FG BKN003
BECMG 1509/1511 12010KT
TEMPO 1513/1517 SCT020



MET'MAP, la Météo Aéronautique d'un coup d'oeil ! - Copyright ORBIFLY Décembre 2007 - Disclaimer

ORBIFLY MET'MAP TEAM :

Programmation & Développement : Alexandra Zaïnal
Conception & Développement : Baudouin d'Aumeries
Co-Programmation & Développement : Marc-Olivier Méhu
Soutien technique & logistique : Manuel Goepfert

Contact : metmap@orbifly.com




SOURCES & CREDITS :

   NOAA